Time;durP1;ratioP1;P1;durP2;ratioP2;P2;SDS_P1;SDS_P2;PMS_P1;PMS_P2;Temp;Humidity;BMP_temperature;BMP_pressure;BME280_temperature;BME280_humidity;BME280_pressure;Samples;Min_cycle;Max_cycle;Signal;HPM_P1;HPM_P2
2022/01/28 00:01:02;;;;;;;14.87;8.70;;;-7.10;99.90;;;;;;5075346;28;20836;-71
2022/01/28 00:03:29;;;;;;;13.63;8.30;;;-7.70;99.90;;;;;;5075194;28;20830;-76
2022/01/28 00:05:55;;;;;;;9.87;7.57;;;-7.50;99.90;;;;;;5075066;28;20524;-78
2022/01/28 00:08:21;;;;;;;21.73;8.17;;;-6.90;99.90;;;;;;5075182;28;20723;-78
2022/01/28 00:10:47;;;;;;;10.77;7.23;;;-7.40;99.90;;;;;;5075411;28;20571;-82
2022/01/28 00:39:46;;;;;;;16.63;9.83;;;-6.30;99.90;;;;;;5078451;28;20773;-73
2022/01/28 00:42:12;;;;;;;14.30;7.97;;;-6.70;99.90;;;;;;5078658;28;20432;-72
2022/01/28 00:44:39;;;;;;;11.70;7.23;;;-7.70;99.90;;;;;;5078450;28;20441;-75
2022/01/28 00:47:04;;;;;;;19.07;8.80;;;-7.00;99.90;;;;;;5077520;28;20499;-77
2022/01/28 00:49:31;;;;;;;11.13;7.80;;;-7.60;99.90;;;;;;5078025;28;20865;-76
2022/01/28 00:51:56;;;;;;;14.40;8.50;;;-7.70;99.90;;;;;;5077494;28;20653;-74
2022/01/28 00:54:22;;;;;;;15.80;10.20;;;-7.50;99.90;;;;;;5078285;28;20398;-72
2022/01/28 00:56:48;;;;;;;18.30;8.23;;;-7.30;99.90;;;;;;5078483;28;20565;-80
2022/01/28 00:59:14;;;;;;;15.97;8.23;;;-6.80;99.90;;;;;;5078285;28;20163;-76
2022/01/28 01:01:40;;;;;;;15.40;8.17;;;-6.80;99.90;;;;;;5078057;28;20580;-71
2022/01/28 01:04:07;;;;;;;18.20;9.70;;;-6.70;99.90;;;;;;5076720;28;20440;-75
2022/01/28 01:06:33;;;;;;;19.73;8.90;;;-6.30;99.90;;;;;;5078088;28;20575;-73
2022/01/28 01:08:59;;;;;;;20.10;8.10;;;-7.60;99.90;;;;;;5078067;28;20486;-75
2022/01/28 01:11:27;;;;;;;14.87;7.97;;;-5.80;99.90;;;;;;5078154;28;20400;-75
2022/01/28 01:13:53;;;;;;;16.30;7.67;;;-7.80;99.90;;;;;;5077791;28;20418;-80
2022/01/28 01:16:31;;;;;;;15.70;6.80;;;-7.70;99.90;;;;;;5077026;28;20405;-77
2022/01/28 01:21:40;;;;;;;12.67;7.43;;;-7.70;99.90;;;;;;5077996;28;20891;-74
2022/01/28 01:24:09;;;;;;;10.90;7.43;;;-7.90;99.90;;;;;;5077683;28;20488;-73
2022/01/28 01:26:38;;;;;;;8.33;6.50;;;-7.50;99.90;;;;;;5077160;28;20401;-81
2022/01/28 01:29:08;;;;;;;16.03;7.27;;;-8.30;99.90;;;;;;5077905;28;20709;-73
2022/01/28 01:31:35;;;;;;;9.50;6.63;;;-8.90;99.90;;;;;;5077816;28;20508;-74
2022/01/28 01:34:19;;;;;;;8.63;6.57;;;-8.40;99.90;;;;;;5077617;28;20490;-77
2022/01/28 01:36:45;;;;;;;10.90;7.90;;;-7.60;99.90;;;;;;5082928;28;20432;-76
2022/01/28 01:39:16;;;;;;;13.57;7.50;;;-7.80;99.90;;;;;;5080311;28;20406;-82
2022/01/28 01:41:47;;;;;;;12.57;6.70;;;-7.90;99.90;;;;;;5077551;28;20247;-75
2022/01/28 01:52:22;;;;;;;9.13;6.33;;;-7.80;99.90;;;;;;5077355;28;20400;-71
2022/01/28 01:54:50;;;;;;;13.83;6.50;;;-8.70;99.90;;;;;;5077168;28;20463;-72
2022/01/28 01:57:16;;;;;;;11.70;7.23;;;-8.30;99.90;;;;;;5077172;28;20174;-74
2022/01/28 01:59:42;;;;;;;11.20;6.43;;;-8.10;99.90;;;;;;5077136;28;20462;-78
2022/01/28 02:02:09;;;;;;;14.47;6.67;;;-7.90;99.90;;;;;;5076698;28;20638;-72
2022/01/28 02:04:35;;;;;;;14.03;7.53;;;-7.80;99.90;;;;;;5077043;28;20543;-79
2022/01/28 02:07:02;;;;;;;17.63;8.60;;;-7.50;99.90;;;;;;5076903;28;20430;-73
2022/01/28 02:09:28;;;;;;;16.97;8.03;;;-7.10;99.90;;;;;;5076911;28;20396;-72
2022/01/28 02:11:53;;;;;;;11.03;7.20;;;-6.90;99.90;;;;;;5076856;28;20423;-74
2022/01/28 02:14:19;;;;;;;12.97;7.33;;;-7.00;99.90;;;;;;5075892;28;20175;-71
2022/01/28 02:16:45;;;;;;;10.30;6.93;;;-6.80;99.90;;;;;;5076409;28;20172;-71
2022/01/28 02:19:11;;;;;;;18.30;7.83;;;-6.10;99.90;;;;;;5076668;28;20426;-72
2022/01/28 02:21:46;;;;;;;15.40;8.07;;;-6.10;99.90;;;;;;5076545;28;20187;-73
2022/01/28 02:24:15;;;;;;;13.17;7.53;;;-6.10;99.90;;;;;;5075614;28;20450;-77
2022/01/28 02:26:41;;;;;;;16.30;9.27;;;-6.50;99.90;;;;;;5076532;28;20479;-72
2022/01/28 02:29:13;;;;;;;13.27;9.10;;;-7.10;99.90;;;;;;5076622;28;20435;-71
2022/01/28 02:31:41;;;;;;;14.20;7.37;;;-7.10;99.90;;;;;;5076163;28;20166;-71
2022/01/28 02:34:10;;;;;;;14.63;8.10;;;-6.60;99.90;;;;;;5076463;28;20489;-72
2022/01/28 02:36:36;;;;;;;15.17;8.53;;;-6.80;99.90;;;;;;5076401;28;20755;-76
2022/01/28 02:39:03;;;;;;;15.37;8.60;;;-7.20;99.90;;;;;;5076332;28;20400;-71
2022/01/28 02:41:34;;;;;;;14.53;9.37;;;-7.10;99.90;;;;;;5075260;28;20495;-77
2022/01/28 02:44:37;;;;;;;15.07;8.30;;;-7.00;99.90;;;;;;5076117;28;20535;-79
2022/01/28 02:47:04;;;;;;;15.10;8.43;;;-7.10;99.90;;;;;;5076254;28;20408;-74
2022/01/28 02:49:36;;;;;;;12.23;8.87;;;-7.30;99.90;;;;;;5076344;28;20480;-78
2022/01/28 02:52:03;;;;;;;15.83;8.97;;;-7.30;99.90;;;;;;5075947;28;20836;-74
2022/01/28 02:54:32;;;;;;;15.57;8.43;;;-7.60;99.90;;;;;;5076153;28;20404;-70
2022/01/28 02:57:02;;;;;;;11.60;7.43;;;-7.70;99.90;;;;;;5076041;28;20427;-72
2022/01/28 02:59:28;;;;;;;10.63;6.70;;;-7.50;99.90;;;;;;5075826;28;20682;-81
2022/01/28 03:01:54;;;;;;;9.57;8.07;;;-8.00;99.90;;;;;;5075514;28;20451;-78
2022/01/28 03:06:56;;;;;;;18.00;8.57;;;-7.80;99.90;;;;;;5075981;28;20191;-72
2022/01/28 03:09:21;;;;;;;13.67;8.33;;;-8.20;99.90;;;;;;5075967;28;20401;-81
2022/01/28 03:12:10;;;;;;;21.73;7.93;;;-7.40;99.90;;;;;;5075747;28;20168;-79
2022/01/28 03:14:53;;;;;;;14.93;8.70;;;-7.20;99.90;;;;;;5074540;28;20179;-82
2022/01/28 03:20:15;;;;;;;11.53;7.47;;;-8.30;99.90;;;;;;5075835;28;20401;-72
2022/01/28 03:22:41;;;;;;;10.60;7.07;;;-8.50;99.90;;;;;;5074417;28;20433;-79
2022/01/28 03:25:07;;;;;;;10.00;6.73;;;-8.50;99.90;;;;;;5075706;28;20451;-72
2022/01/28 03:30:14;;;;;;;10.27;6.43;;;-8.80;99.90;;;;;;5076072;28;20403;-81
2022/01/28 03:32:39;;;;;;;6.77;6.07;;;-9.50;99.90;;;;;;5075930;28;20644;-72
2022/01/28 03:35:05;;;;;;;10.03;8.20;;;-8.40;99.90;;;;;;5075661;28;20200;-79
2022/01/28 03:37:31;;;;;;;8.60;7.77;;;-8.60;99.90;;;;;;5074437;28;20187;-72
2022/01/28 03:39:57;;;;;;;9.50;8.03;;;-9.10;99.90;;;;;;5075458;28;20408;-78
2022/01/28 03:42:23;;;;;;;11.60;8.30;;;-9.30;99.90;;;;;;5075279;28;20176;-80
2022/01/28 03:44:48;;;;;;;12.73;7.73;;;-9.40;99.90;;;;;;5075515;28;20583;-74
2022/01/28 03:47:14;;;;;;;8.23;6.53;;;-9.30;99.90;;;;;;5075232;28;20199;-78
2022/01/28 03:49:40;;;;;;;18.13;7.10;;;-9.60;99.90;;;;;;5077810;28;20214;-72
2022/01/28 03:52:06;;;;;;;11.53;7.67;;;-10.00;99.90;;;;;;5079508;28;20167;-73
2022/01/28 03:54:32;;;;;;;8.83;6.50;;;-9.10;99.90;;;;;;5079570;28;20172;-76
2022/01/28 03:56:57;;;;;;;10.33;7.20;;;-8.70;99.90;;;;;;5079221;28;20541;-73
2022/01/28 03:59:23;;;;;;;11.83;7.53;;;-9.00;99.90;;;;;;5079319;28;20171;-78
2022/01/28 04:01:50;;;;;;;12.97;7.80;;;-9.00;99.90;;;;;;5079275;28;20259;-77
2022/01/28 04:05:42;;;;;;;13.83;8.93;;;-9.10;99.90;;;;;;5079185;28;20198;-74
2022/01/28 04:12:39;;;;;;;9.63;6.97;;;-9.30;99.90;;;;;;5079284;28;20399;-79
2022/01/28 04:17:50;;;;;;;13.37;7.43;;;-8.90;99.90;;;;;;5078917;28;20821;-80
2022/01/28 04:20:17;;;;;;;9.50;6.10;;;-9.10;99.90;;;;;;5079008;28;20407;-79
2022/01/28 04:22:43;;;;;;;7.77;6.87;;;-9.60;99.90;;;;;;5078914;28;20472;-78
2022/01/28 04:25:09;;;;;;;9.93;7.13;;;-9.70;99.90;;;;;;5078791;28;20886;-72
2022/01/28 04:27:35;;;;;;;9.53;6.63;;;-9.70;99.90;;;;;;5078608;28;20220;-72
2022/01/28 04:30:01;;;;;;;8.90;7.80;;;-9.10;99.90;;;;;;5078796;28;20408;-77
2022/01/28 04:32:29;;;;;;;8.97;7.37;;;-9.50;99.90;;;;;;5079094;28;20178;-79
2022/01/28 04:34:55;;;;;;;9.20;7.20;;;-9.90;99.90;;;;;;5077680;28;20191;-82
2022/01/28 04:37:40;;;;;;;12.27;7.63;;;-9.70;99.90;;;;;;5078629;28;20434;-72
2022/01/28 04:45:14;;;;;;;8.93;7.00;;;-9.20;99.90;;;;;;5078448;28;20447;-73
2022/01/28 05:03:47;;;;;;;11.67;6.97;;;-10.00;99.90;;;;;;5078194;28;20427;-73
2022/01/28 05:06:53;;;;;;;14.20;7.70;;;-9.70;99.90;;;;;;5078532;28;20408;-81
2022/01/28 05:27:43;;;;;;;23.43;9.83;;;-8.80;99.90;;;;;;5066584;28;20400;-79
2022/01/28 05:30:09;;;;;;;17.70;10.50;;;-9.40;99.90;;;;;;5076664;28;20415;-79
2022/01/28 05:32:35;;;;;;;19.73;9.83;;;-9.70;99.90;;;;;;5077603;28;20416;-72
2022/01/28 05:35:01;;;;;;;24.83;11.70;;;-9.30;99.90;;;;;;5077604;28;20403;-74
2022/01/28 05:37:27;;;;;;;11.63;9.83;;;-8.80;99.90;;;;;;5077653;28;20175;-71
2022/01/28 05:39:52;;;;;;;24.80;10.33;;;-8.80;99.90;;;;;;5077209;28;20174;-75
2022/01/28 05:42:18;;;;;;;18.73;10.47;;;-8.40;99.90;;;;;;5077689;28;20171;-75
2022/01/28 05:44:44;;;;;;;20.63;11.67;;;-9.00;99.90;;;;;;5077199;28;20237;-78
2022/01/28 05:47:14;;;;;;;20.63;11.17;;;-8.90;99.90;;;;;;5077466;28;20167;-76
2022/01/28 05:49:41;;;;;;;21.57;11.27;;;-8.90;99.90;;;;;;5077252;28;20595;-79
2022/01/28 05:52:08;;;;;;;26.37;12.67;;;-9.50;99.90;;;;;;5077323;28;20407;-71
2022/01/28 05:54:34;;;;;;;23.40;13.87;;;-9.40;99.90;;;;;;5077014;28;20396;-74
2022/01/28 05:57:00;;;;;;;17.50;11.43;;;-9.40;99.90;;;;;;5076046;28;20411;-75
2022/01/28 05:59:26;;;;;;;20.60;12.90;;;-9.20;99.90;;;;;;5077190;28;20241;-71
2022/01/28 06:01:52;;;;;;;21.97;11.50;;;-9.20;99.90;;;;;;5076677;28;20501;-73
2022/01/28 06:04:19;;;;;;;25.50;12.67;;;-8.90;99.90;;;;;;5076997;28;20202;-77
2022/01/28 06:06:45;;;;;;;16.70;9.80;;;-9.10;99.90;;;;;;5076876;28;20251;-73
2022/01/28 06:09:11;;;;;;;20.20;11.07;;;-8.30;99.90;;;;;;5075694;28;20515;-72
2022/01/28 06:11:40;;;;;;;22.67;11.90;;;-8.70;99.90;;;;;;5061730;28;20176;-75
2022/01/28 06:14:06;;;;;;;14.60;9.10;;;-9.10;99.90;;;;;;5075402;28;20213;-81
2022/01/28 06:16:32;;;;;;;21.50;12.73;;;-9.00;99.90;;;;;;5071042;28;20407;-73
2022/01/28 06:18:58;;;;;;;19.93;12.87;;;-9.20;99.90;;;;;;5056365;28;20406;-75
2022/01/28 06:21:24;;;;;;;17.60;12.53;;;-9.20;99.90;;;;;;5055769;28;20168;-72
2022/01/28 06:23:52;;;;;;;23.87;13.13;;;-9.40;99.90;;;;;;5082480;28;20182;-78
2022/01/28 06:26:18;;;;;;;16.60;13.27;;;-9.10;99.90;;;;;;5076224;28;20568;-79
2022/01/28 06:28:43;;;;;;;21.27;13.67;;;-9.10;99.90;;;;;;5069906;28;20408;-77
2022/01/28 06:31:10;;;;;;;23.60;13.57;;;-8.50;99.90;;;;;;5056388;28;20708;-79
2022/01/28 06:33:36;;;;;;;20.30;14.17;;;-8.90;99.90;;;;;;5066639;28;20582;-76
2022/01/28 06:36:03;;;;;;;20.07;15.20;;;-8.70;99.90;;;;;;5095217;28;20464;-83
2022/01/28 06:38:35;;;;;;;16.60;13.00;;;-9.00;99.90;;;;;;5095123;28;20609;-78
2022/01/28 06:41:01;;;;;;;29.03;15.67;;;-9.20;99.90;;;;;;5096333;28;20838;-80
2022/01/28 06:43:27;;;;;;;20.47;13.30;;;-9.00;99.90;;;;;;5096504;28;20411;-79
2022/01/28 06:45:53;;;;;;;28.23;17.40;;;-9.30;99.90;;;;;;5095886;28;20186;-80
2022/01/28 06:48:19;;;;;;;30.77;15.50;;;-9.20;99.90;;;;;;5096089;28;20167;-76
2022/01/28 06:50:45;;;;;;;22.27;14.87;;;-9.20;99.90;;;;;;5096377;28;20155;-79
2022/01/28 06:53:12;;;;;;;29.10;15.53;;;-9.30;99.90;;;;;;5096334;28;20861;-75
2022/01/28 06:55:39;;;;;;;28.53;16.83;;;-9.10;99.90;;;;;;5096423;28;21094;-76
2022/01/28 06:58:05;;;;;;;31.07;19.00;;;-9.10;99.90;;;;;;5096134;28;20427;-75
2022/01/28 07:00:37;;;;;;;35.73;18.27;;;-8.90;99.90;;;;;;5096295;28;20433;-77
2022/01/28 07:03:11;;;;;;;28.87;17.30;;;-9.10;99.90;;;;;;5095954;28;20439;-81
2022/01/28 07:05:37;;;;;;;34.53;17.73;;;-8.60;99.90;;;;;;5095938;28;20538;-79
2022/01/28 07:08:04;;;;;;;26.30;17.67;;;-8.50;99.90;;;;;;5095895;28;20403;-75
2022/01/28 07:10:31;;;;;;;35.70;18.03;;;-8.50;99.90;;;;;;5096018;28;20469;-77
2022/01/28 07:12:57;;;;;;;36.53;19.53;;;-8.80;99.90;;;;;;5095982;28;20396;-78
2022/01/28 07:15:25;;;;;;;27.50;17.93;;;-8.70;99.90;;;;;;5096345;28;20411;-76
2022/01/28 07:18:00;;;;;;;27.70;18.20;;;-8.40;99.90;;;;;;5095955;28;20885;-79
2022/01/28 07:20:29;;;;;;;30.83;19.20;;;-8.30;99.90;;;;;;5095853;28;20499;-70
2022/01/28 07:22:55;;;;;;;31.07;18.80;;;-8.30;99.90;;;;;;5094318;28;20419;-74
2022/01/28 07:25:20;;;;;;;34.00;18.97;;;-8.30;99.90;;;;;;5095704;28;20893;-73
2022/01/28 07:27:46;;;;;;;34.07;17.10;;;-8.50;99.90;;;;;;5093963;28;20399;-71
2022/01/28 07:30:13;;;;;;;32.10;20.30;;;-8.20;99.90;;;;;;5095759;28;20167;-72
2022/01/28 07:32:40;;;;;;;53.97;20.37;;;-8.60;99.90;;;;;;5095702;28;20586;-74
2022/01/28 07:35:06;;;;;;;48.53;19.23;;;-8.70;99.90;;;;;;5094496;28;20400;-79
2022/01/28 07:37:32;;;;;;;46.23;18.23;;;-8.90;99.90;;;;;;5095222;28;20395;-75
2022/01/28 07:39:58;;;;;;;36.83;17.50;;;-9.10;99.90;;;;;;5095645;28;20404;-73
2022/01/28 07:42:25;;;;;;;46.10;18.83;;;-9.10;99.90;;;;;;5095932;28;20232;-79
2022/01/28 07:44:51;;;;;;;37.87;17.07;;;-9.40;99.90;;;;;;5095781;28;20488;-74
2022/01/28 07:47:17;;;;;;;30.17;17.77;;;-8.90;99.90;;;;;;5095531;28;20392;-73
2022/01/28 07:49:43;;;;;;;32.67;16.50;;;-9.20;99.90;;;;;;5094119;28;20167;-73
2022/01/28 07:52:08;;;;;;;43.43;17.30;;;-9.30;99.90;;;;;;5095206;28;20166;-71
2022/01/28 07:54:34;;;;;;;25.47;16.00;;;-8.80;99.90;;;;;;5095365;28;20194;-71
2022/01/28 07:57:01;;;;;;;37.60;18.77;;;-8.60;99.90;;;;;;5095697;28;20197;-71
2022/01/28 07:59:27;;;;;;;34.47;17.50;;;-9.40;99.90;;;;;;5094709;28;20525;-71
2022/01/28 08:01:52;;;;;;;31.83;18.30;;;-10.10;99.90;;;;;;5095138;28;20473;-72
2022/01/28 08:04:18;;;;;;;39.93;20.03;;;-9.60;99.90;;;;;;5094996;28;20281;-71
2022/01/28 08:06:44;;;;;;;42.03;18.33;;;-9.80;99.90;;;;;;5095434;28;20171;-79
2022/01/28 08:09:10;;;;;;;39.50;19.77;;;-9.70;99.90;;;;;;5095349;28;20174;-72
2022/01/28 08:11:36;;;;;;;42.17;17.67;;;-9.20;99.90;;;;;;5095401;28;20396;-71
2022/01/28 08:14:02;;;;;;;40.80;16.47;;;-8.80;99.90;;;;;;5095377;28;20183;-76
2022/01/28 08:16:28;;;;;;;42.57;16.93;;;-8.90;99.90;;;;;;5095522;28;20162;-74
2022/01/28 08:18:54;;;;;;;37.43;18.67;;;-8.50;99.90;;;;;;5095126;28;20395;-73
2022/01/28 08:21:20;;;;;;;51.13;17.50;;;-8.30;99.90;;;;;;5095118;28;20612;-71
2022/01/28 08:23:46;;;;;;;37.23;17.00;;;-7.80;99.90;;;;;;5095211;28;20162;-74
2022/01/28 08:26:12;;;;;;;50.77;18.27;;;-7.70;99.90;;;;;;5095006;28;20263;-72
2022/01/28 08:28:41;;;;;;;60.00;17.70;;;-8.00;99.90;;;;;;5093885;28;20458;-76
2022/01/28 08:31:08;;;;;;;43.93;17.73;;;-7.70;99.90;;;;;;5094254;28;20854;-72
2022/01/28 08:33:34;;;;;;;43.23;18.37;;;-7.70;99.90;;;;;;5094945;28;20395;-71
2022/01/28 08:36:01;;;;;;;41.80;18.93;;;-8.10;99.90;;;;;;5082288;28;20878;-75
2022/01/28 08:38:35;;;;;;;37.60;18.67;;;-8.00;99.90;;;;;;5080802;28;20481;-77
2022/01/28 08:41:00;;;;;;;49.10;18.50;;;-5.80;99.90;;;;;;5096303;28;20761;-78
2022/01/28 08:43:27;;;;;;;38.97;16.43;;;-6.90;99.90;;;;;;5077550;28;20404;-76
2022/01/28 08:45:53;;;;;;;32.80;17.87;;;-7.10;99.90;;;;;;5077438;28;20274;-77
2022/01/28 08:48:18;;;;;;;34.73;18.80;;;-7.00;99.90;;;;;;5077350;28;20495;-75
2022/01/28 08:50:44;;;;;;;47.20;18.80;;;-5.80;99.90;;;;;;5077611;28;20164;-71
2022/01/28 08:53:11;;;;;;;56.80;19.20;;;-7.60;99.90;;;;;;5076698;28;20222;-71
2022/01/28 08:55:38;;;;;;;40.83;18.30;;;-7.50;99.90;;;;;;5058186;28;20165;-73
2022/01/28 08:58:05;;;;;;;33.33;17.90;;;-6.90;99.90;;;;;;5058156;28;20405;-73
2022/01/28 09:00:31;;;;;;;36.93;18.00;;;-7.20;99.90;;;;;;5057903;28;20429;-76
2022/01/28 09:02:56;;;;;;;39.83;18.10;;;-7.00;99.90;;;;;;5057807;28;20743;-74
2022/01/28 09:05:23;;;;;;;46.37;18.03;;;-7.60;99.90;;;;;;5056559;28;20620;-73
2022/01/28 09:07:49;;;;;;;38.77;18.10;;;-8.40;99.90;;;;;;5058061;28;20243;-72
2022/01/28 09:10:18;;;;;;;41.87;17.60;;;-7.00;99.90;;;;;;5056559;28;20543;-74
2022/01/28 09:15:22;;;;;;;49.13;18.90;;;-8.30;99.90;;;;;;5057754;28;20397;-77
2022/01/28 09:17:48;;;;;;;47.10;18.73;;;-8.00;99.90;;;;;;5057546;28;20860;-76
2022/01/28 09:20:14;;;;;;;41.77;17.40;;;-7.80;99.90;;;;;;5056486;28;20184;-72
2022/01/28 09:22:40;;;;;;;42.23;17.63;;;-7.70;99.90;;;;;;5057754;28;20201;-75
2022/01/28 09:25:06;;;;;;;48.13;18.43;;;-8.20;99.90;;;;;;5060010;28;20213;-76
2022/01/28 09:27:32;;;;;;;50.60;17.90;;;-8.00;99.90;;;;;;5066135;28;20173;-72
2022/01/28 09:29:58;;;;;;;56.33;17.53;;;-8.40;99.90;;;;;;5076940;28;21048;-75
2022/01/28 09:32:26;;;;;;;56.87;17.33;;;-7.60;99.90;;;;;;5065956;28;20200;-76
2022/01/28 09:34:52;;;;;;;49.13;17.57;;;-7.50;99.90;;;;;;5057480;28;20170;-72
2022/01/28 09:37:17;;;;;;;41.67;17.07;;;-8.50;99.90;;;;;;5071897;28;20500;-78
2022/01/28 09:39:45;;;;;;;49.20;17.97;;;-7.50;99.90;;;;;;5074370;28;20203;-74
2022/01/28 09:42:15;;;;;;;65.03;18.90;;;-7.80;99.90;;;;;;5063568;28;20560;-73
2022/01/28 09:44:42;;;;;;;49.37;18.57;;;-6.90;99.90;;;;;;5071281;28;20444;-75
2022/01/28 09:47:11;;;;;;;51.07;18.27;;;-7.40;99.90;;;;;;5058252;28;20419;-74
2022/01/28 09:49:39;;;;;;;33.37;17.17;;;-6.60;99.90;;;;;;5062896;28;20454;-72
2022/01/28 09:52:07;;;;;;;50.03;18.77;;;-7.60;99.90;;;;;;5070233;28;20415;-74
2022/01/28 09:54:33;;;;;;;48.40;17.00;;;-8.10;99.90;;;;;;5070288;28;20720;-74
2022/01/28 09:57:01;;;;;;;48.07;16.30;;;-8.20;99.90;;;;;;5062393;28;20844;-78
2022/01/28 09:59:27;;;;;;;34.67;16.03;;;-8.00;99.90;;;;;;5056907;28;21069;-76
2022/01/28 10:01:54;;;;;;;36.87;15.83;;;-7.90;99.90;;;;;;5076660;28;20426;-73
2022/01/28 10:04:21;;;;;;;43.13;16.77;;;-7.70;99.90;;;;;;5077009;28;20556;-75
2022/01/28 10:06:47;;;;;;;47.03;19.23;;;-7.80;99.90;;;;;;5076840;28;20479;-74
2022/01/28 10:09:17;;;;;;;36.27;15.00;;;-7.10;99.90;;;;;;5068046;28;20408;-75
2022/01/28 10:11:45;;;;;;;30.07;15.70;;;-7.20;99.90;;;;;;5067137;28;20404;-75
2022/01/28 10:14:15;;;;;;;29.83;16.27;;;-7.80;99.90;;;;;;5096787;28;20410;-75
2022/01/28 10:16:42;;;;;;;42.13;16.77;;;-7.80;99.90;;;;;;5096937;28;20389;-76
2022/01/28 10:19:09;;;;;;;32.43;15.67;;;-7.20;99.90;;;;;;5097115;28;20429;-76
2022/01/28 10:21:44;;;;;;;47.07;17.80;;;-6.80;99.90;;;;;;5095093;28;20432;-78
2022/01/28 10:24:22;;;;;;;42.17;16.23;;;-7.00;99.90;;;;;;5072566;28;20886;-79
2022/01/28 10:27:07;;;;;;;54.00;16.23;;;-7.70;99.90;;;;;;5066787;28;20760;-76
2022/01/28 10:29:38;;;;;;;50.93;16.20;;;-7.00;99.90;;;;;;5060384;28;20519;-74
2022/01/28 10:32:27;;;;;;;38.93;16.87;;;-6.90;99.90;;;;;;5055401;28;20409;-73
2022/01/28 10:34:53;;;;;;;29.23;16.63;;;-6.70;99.90;;;;;;5056475;28;20859;-71
2022/01/28 10:37:28;;;;;;;29.73;16.40;;;-6.30;99.90;;;;;;5056242;28;20434;-72
2022/01/28 10:40:01;;;;;;;25.57;16.57;;;-6.20;99.90;;;;;;5056317;28;20198;-73
2022/01/28 10:42:39;;;;;;;34.77;17.10;;;-7.10;99.90;;;;;;5056233;28;20693;-73
2022/01/28 10:45:14;;;;;;;35.43;16.00;;;-8.00;99.90;;;;;;5056025;28;20497;-75
2022/01/28 10:47:59;;;;;;;39.63;15.00;;;-7.30;99.90;;;;;;5056026;28;20555;-74
2022/01/28 10:50:34;;;;;;;21.10;15.47;;;-7.10;99.90;;;;;;5076874;28;20489;-73
2022/01/28 10:53:05;;;;;;;31.53;16.67;;;-6.30;99.90;;;;;;5095980;28;20391;-70
2022/01/28 10:55:34;;;;;;;28.43;16.30;;;-7.40;99.90;;;;;;5085053;28;20439;-79
2022/01/28 10:58:08;;;;;;;22.07;15.23;;;-7.30;99.90;;;;;;5056043;28;20479;-76
2022/01/28 11:00:36;;;;;;;21.30;15.73;;;-7.20;99.90;;;;;;5057286;28;20452;-78
2022/01/28 11:03:05;;;;;;;21.20;14.83;;;-7.20;99.90;;;;;;5055744;28;20438;-70
2022/01/28 11:05:34;;;;;;;18.63;13.97;;;-6.90;99.90;;;;;;5059463;28;20970;-75
2022/01/28 11:08:01;;;;;;;20.27;13.50;;;-7.00;99.90;;;;;;5062053;28;20482;-75
2022/01/28 11:10:27;;;;;;;18.97;15.13;;;-6.50;99.90;;;;;;5094532;28;20170;-76
2022/01/28 11:12:54;;;;;;;21.53;15.33;;;-6.70;99.90;;;;;;5089228;28;20172;-73
2022/01/28 11:15:21;;;;;;;18.20;14.80;;;-7.50;99.90;;;;;;5074477;28;20265;-74
2022/01/28 11:17:49;;;;;;;36.13;15.80;;;-6.90;99.90;;;;;;5074988;28;20294;-73
2022/01/28 11:20:20;;;;;;;24.63;16.73;;;-5.90;99.90;;;;;;5074649;28;20199;-74
2022/01/28 11:23:23;;;;;;;29.33;15.77;;;-6.90;99.90;;;;;;5074530;28;20222;-74
2022/01/28 11:26:27;;;;;;;17.53;13.83;;;-6.50;99.90;;;;;;5086812;28;20202;-76
2022/01/28 11:28:56;;;;;;;18.57;15.00;;;-6.90;99.90;;;;;;5094475;28;20194;-75
2022/01/28 11:31:53;;;;;;;17.13;15.33;;;-6.40;99.90;;;;;;5095308;28;20167;-75
2022/01/28 11:34:22;;;;;;;21.07;15.97;;;-6.20;99.90;;;;;;5095664;28;20170;-77
2022/01/28 11:36:48;;;;;;;22.40;14.47;;;-5.60;99.90;;;;;;5094564;28;20238;-75
2022/01/28 11:39:32;;;;;;;20.90;17.90;;;-6.40;99.90;;;;;;5095258;28;20205;-75
2022/01/28 11:42:07;;;;;;;17.23;14.13;;;-6.20;99.90;;;;;;5094821;28;20188;-73
2022/01/28 11:44:57;;;;;;;18.00;13.97;;;-6.60;99.90;;;;;;5074468;28;20197;-74
2022/01/28 11:47:24;;;;;;;24.17;18.67;;;-6.10;99.90;;;;;;5075486;28;20170;-74
2022/01/28 11:49:56;;;;;;;21.90;15.53;;;-6.50;99.90;;;;;;5060849;28;20209;-72
2022/01/28 11:52:48;;;;;;;21.27;15.33;;;-4.20;99.90;;;;;;5075803;28;20183;-73
2022/01/28 11:55:28;;;;;;;20.37;16.13;;;-5.60;99.90;;;;;;5058655;28;20182;-73
2022/01/28 11:57:59;;;;;;;23.27;16.87;;;-4.90;99.90;;;;;;5060416;28;20176;-74
2022/01/28 12:00:28;;;;;;;27.33;18.67;;;-3.90;99.90;;;;;;5061159;28;20188;-70
2022/01/28 12:02:55;;;;;;;23.93;17.43;;;-4.70;99.90;;;;;;5055178;28;20192;-76
2022/01/28 12:05:25;;;;;;;25.63;17.73;;;-4.50;99.90;;;;;;5055011;28;20507;-75
2022/01/28 12:07:51;;;;;;;27.37;19.43;;;-4.80;99.90;;;;;;5054882;28;20553;-74
2022/01/28 12:10:17;;;;;;;27.83;18.60;;;-4.40;99.90;;;;;;5057658;28;20243;-74
2022/01/28 12:12:49;;;;;;;25.37;18.10;;;-4.80;99.90;;;;;;5058406;28;20598;-74
2022/01/28 12:15:18;;;;;;;30.57;19.83;;;-4.50;99.90;;;;;;5059087;28;20396;-74
2022/01/28 12:17:49;;;;;;;26.63;18.77;;;-4.70;99.90;;;;;;5058169;28;20167;-75
2022/01/28 12:20:15;;;;;;;25.87;17.77;;;-4.70;99.90;;;;;;5057993;28;20175;-75
2022/01/28 12:23:00;;;;;;;26.53;16.80;;;-4.80;99.90;;;;;;5058778;28;20681;-74
2022/01/28 12:25:41;;;;;;;23.47;15.13;;;-5.60;99.90;;;;;;5058476;28;20191;-72
2022/01/28 12:28:10;;;;;;;28.00;17.57;;;-5.60;99.90;;;;;;5058927;28;20397;-73
2022/01/28 12:30:36;;;;;;;32.47;18.83;;;-5.40;99.90;;;;;;5058933;28;20171;-73
2022/01/28 12:33:01;;;;;;;25.60;17.97;;;-5.10;99.90;;;;;;5057732;28;20212;-74
2022/01/28 12:35:27;;;;;;;28.97;19.13;;;-4.70;99.90;;;;;;5058659;28;20263;-72
2022/01/28 12:37:59;;;;;;;29.00;19.47;;;-4.70;99.90;;;;;;5058500;28;20214;-73
2022/01/28 12:40:36;;;;;;;32.47;19.07;;;-5.10;99.90;;;;;;5058434;28;20171;-73
2022/01/28 12:43:04;;;;;;;27.60;19.53;;;-4.60;99.90;;;;;;5058580;28;20170;-74
2022/01/28 12:45:30;;;;;;;33.10;20.10;;;-4.70;99.90;;;;;;5058493;28;20449;-72
2022/01/28 12:47:57;;;;;;;33.90;20.73;;;-4.70;99.90;;;;;;5058433;28;20401;-71
2022/01/28 12:50:24;;;;;;;33.57;20.80;;;-5.00;99.90;;;;;;5057096;28;20178;-78
2022/01/28 12:52:50;;;;;;;35.87;21.77;;;-5.00;99.90;;;;;;5058306;28;20403;-73
2022/01/28 12:55:16;;;;;;;28.93;20.47;;;-5.20;99.90;;;;;;5057958;28;20196;-73
2022/01/28 12:57:43;;;;;;;29.27;20.70;;;-4.90;99.90;;;;;;5057977;28;20415;-72
2022/01/28 13:00:10;;;;;;;27.17;19.33;;;-5.00;99.90;;;;;;5058475;28;20468;-72
2022/01/28 13:02:36;;;;;;;35.70;21.37;;;-4.90;99.90;;;;;;5057811;28;20736;-78
2022/01/28 13:10:24;;;;;;;31.13;21.07;;;-4.50;99.90;;;;;;5076869;28;20252;-73
2022/01/28 13:12:50;;;;;;;37.40;22.07;;;-4.30;99.90;;;;;;5077490;28;20832;-72
2022/01/28 13:15:17;;;;;;;35.13;23.27;;;-4.50;99.90;;;;;;5076901;28;20181;-73
2022/01/28 13:17:56;;;;;;;35.50;20.67;;;-4.20;99.90;;;;;;5071239;28;20180;-78
2022/01/28 13:20:23;;;;;;;36.27;22.00;;;-4.50;99.90;;;;;;5062441;28;20409;-73
2022/01/28 13:22:51;;;;;;;34.10;23.20;;;-4.50;99.90;;;;;;5057069;28;20202;-75
2022/01/28 13:25:23;;;;;;;38.63;23.70;;;-3.30;99.90;;;;;;5074547;28;20191;-75
2022/01/28 13:27:56;;;;;;;39.53;21.47;;;-4.30;99.90;;;;;;5074650;28;20419;-76
2022/01/28 13:30:21;;;;;;;34.67;22.00;;;-4.70;99.90;;;;;;5063426;28;20179;-72
2022/01/28 13:32:51;;;;;;;32.77;19.73;;;-5.20;99.90;;;;;;5063727;28;20428;-72
2022/01/28 13:35:18;;;;;;;35.87;22.70;;;-5.10;99.90;;;;;;5066543;28;20190;-76
2022/01/28 13:37:55;;;;;;;41.80;23.03;;;-4.80;99.90;;;;;;5068489;28;20186;-73
2022/01/28 13:40:21;;;;;;;34.90;21.87;;;-5.30;99.90;;;;;;5074021;28;20425;-74
2022/01/28 13:43:01;;;;;;;41.10;22.53;;;-6.00;99.90;;;;;;5077030;28;20410;-74
2022/01/28 13:45:55;;;;;;;35.37;20.37;;;-5.10;99.90;;;;;;5075086;28;20206;-74
2022/01/28 13:48:34;;;;;;;35.03;20.13;;;-4.80;99.90;;;;;;5080421;28;20414;-72
2022/01/28 13:51:12;;;;;;;33.20;20.30;;;-4.70;99.90;;;;;;5083758;28;20430;-73
2022/01/28 13:56:38;;;;;;;41.27;22.07;;;-4.30;99.90;;;;;;5078246;28;20502;-73
2022/01/28 13:59:24;;;;;;;36.13;20.70;;;-5.30;99.90;;;;;;5075895;28;20406;-74
2022/01/28 14:01:52;;;;;;;40.27;21.57;;;-5.10;99.90;;;;;;5075512;28;20737;-71
2022/01/28 14:04:22;;;;;;;42.27;22.03;;;-4.60;99.90;;;;;;5076880;28;20443;-78
2022/01/28 14:06:49;;;;;;;40.97;22.87;;;-4.20;99.90;;;;;;5084831;28;20412;-77
2022/01/28 14:09:19;;;;;;;42.00;22.20;;;-5.10;99.90;;;;;;5097282;28;20165;-77
2022/01/28 14:11:59;;;;;;;42.13;19.90;;;-4.90;99.90;;;;;;5095517;28;20403;-75
2022/01/28 14:14:31;;;;;;;41.03;21.37;;;-4.90;99.90;;;;;;5096298;28;20482;-75
2022/01/28 14:16:59;;;;;;;35.60;19.90;;;-3.40;99.90;;;;;;5095847;28;20721;-76
2022/01/28 14:19:27;;;;;;;39.63;21.83;;;-3.60;99.90;;;;;;5097147;28;20394;-74
2022/01/28 14:21:53;;;;;;;44.60;22.57;;;-4.60;99.90;;;;;;5096660;28;20426;-78
2022/01/28 14:24:24;;;;;;;39.07;21.93;;;-4.50;99.90;;;;;;5095079;28;20415;-76